sensor_id;sensor_type;location;lat;lon;timestamp;pressure;altitude;pressure_sealevel;temperature;humidity
72498;BME280;60522;52.536;5.702;2022-10-31T00:01:53;102177.50;;;20.95;63.50
72498;BME280;60522;52.536;5.702;2022-10-31T00:04:18;102180.56;;;20.93;63.57
72498;BME280;60522;52.536;5.702;2022-10-31T00:06:44;102185.81;;;20.98;63.73
72498;BME280;60522;52.536;5.702;2022-10-31T00:09:09;102175.22;;;20.97;63.85
72498;BME280;60522;52.536;5.702;2022-10-31T00:11:35;102185.81;;;20.98;63.67
72498;BME280;60522;52.536;5.702;2022-10-31T00:14:01;102174.66;;;20.91;63.98
72498;BME280;60522;52.536;5.702;2022-10-31T00:16:27;102172.81;;;20.95;64.02
72498;BME280;60522;52.536;5.702;2022-10-31T00:18:58;102168.16;;;20.96;64.14
72498;BME280;60522;52.536;5.702;2022-10-31T00:21:25;102166.56;;;20.95;64.00
72498;BME280;60522;52.536;5.702;2022-10-31T00:23:50;102166.22;;;20.96;64.22
72498;BME280;60522;52.536;5.702;2022-10-31T00:26:16;102161.88;;;20.95;64.52
72498;BME280;60522;52.536;5.702;2022-10-31T00:28:42;102165.09;;;20.97;64.31
72498;BME280;60522;52.536;5.702;2022-10-31T00:31:09;102166.66;;;20.98;64.25
72498;BME280;60522;52.536;5.702;2022-10-31T00:33:35;102170.22;;;20.99;64.28
72498;BME280;60522;52.536;5.702;2022-10-31T00:36:03;102170.22;;;20.99;64.17
72498;BME280;60522;52.536;5.702;2022-10-31T00:38:29;102164.50;;;20.92;64.60
72498;BME280;60522;52.536;5.702;2022-10-31T00:40:55;102180.34;;;20.98;64.44
72498;BME280;60522;52.536;5.702;2022-10-31T00:43:20;102157.53;;;20.82;64.76
72498;BME280;60522;52.536;5.702;2022-10-31T00:45:46;102186.63;;;20.99;64.66
72498;BME280;60522;52.536;5.702;2022-10-31T00:48:11;102188.09;;;20.96;64.71
72498;BME280;60522;52.536;5.702;2022-10-31T00:50:38;102181.34;;;20.94;64.70
72498;BME280;60522;52.536;5.702;2022-10-31T00:53:04;102174.19;;;20.89;64.83
72498;BME280;60522;52.536;5.702;2022-10-31T00:55:29;102157.19;;;20.84;64.94
72498;BME280;60522;52.536;5.702;2022-10-31T00:57:55;102171.56;;;20.93;64.79
72498;BME280;60522;52.536;5.702;2022-10-31T01:00:20;102184.22;;;20.97;64.87
72498;BME280;60522;52.536;5.702;2022-10-31T01:02:46;102188.53;;;20.98;64.86
72498;BME280;60522;52.536;5.702;2022-10-31T01:05:12;102181.94;;;20.99;64.97
72498;BME280;60522;52.536;5.702;2022-10-31T01:07:38;102176.13;;;21.01;64.98
72498;BME280;60522;52.536;5.702;2022-10-31T01:10:04;102179.44;;;20.94;64.95
72498;BME280;60522;52.536;5.702;2022-10-31T01:12:42;102174.66;;;20.91;65.53
72498;BME280;60522;52.536;5.702;2022-10-31T01:15:09;102178.75;;;20.97;65.17
72498;BME280;60522;52.536;5.702;2022-10-31T01:17:35;102180.22;;;20.95;65.19
72498;BME280;60522;52.536;5.702;2022-10-31T01:20:00;102131.84;;;20.62;65.16
72498;BME280;60522;52.536;5.702;2022-10-31T01:22:25;102197.56;;;20.99;64.98
72498;BME280;60522;52.536;5.702;2022-10-31T01:24:51;102185.81;;;20.98;65.23
72498;BME280;60522;52.536;5.702;2022-10-31T01:27:16;102193.22;;;20.98;65.38
72498;BME280;60522;52.536;5.702;2022-10-31T01:29:42;102179.53;;;20.86;65.13
72498;BME280;60522;52.536;5.702;2022-10-31T01:32:07;102191.28;;;20.98;64.99
72498;BME280;60522;52.536;5.702;2022-10-31T01:34:32;102194.00;;;20.98;65.38
72498;BME280;60522;52.536;5.702;2022-10-31T01:36:59;102187.66;;;20.94;65.31
72498;BME280;60522;52.536;5.702;2022-10-31T01:39:24;102195.16;;;20.97;65.37
72498;BME280;60522;52.536;5.702;2022-10-31T01:41:52;102166.22;;;20.84;65.73
72498;BME280;60522;52.536;5.702;2022-10-31T01:46:59;102161.19;;;20.86;66.32
72498;BME280;60522;52.536;5.702;2022-10-31T01:52:32;102182.28;;;20.98;66.04
72498;BME280;60522;52.536;5.702;2022-10-31T01:57:27;102149.78;;;20.84;65.40
72498;BME280;60522;52.536;5.702;2022-10-31T01:59:58;102160.41;;;20.98;66.12
72498;BME280;60522;52.536;5.702;2022-10-31T02:02:25;102125.63;;;20.74;65.58
72498;BME280;60522;52.536;5.702;2022-10-31T02:04:52;102162.34;;;20.97;65.58
72498;BME280;60522;52.536;5.702;2022-10-31T02:07:23;102150.94;;;20.83;65.94
72498;BME280;60522;52.536;5.702;2022-10-31T02:09:51;102181.84;;;20.96;65.81
72498;BME280;60522;52.536;5.702;2022-10-31T02:12:18;102182.28;;;20.98;65.73
72498;BME280;60522;52.536;5.702;2022-10-31T02:14:44;102166.56;;;20.95;65.88
72498;BME280;60522;52.536;5.702;2022-10-31T02:17:10;102174.41;;;20.96;65.76
72498;BME280;60522;52.536;5.702;2022-10-31T02:19:47;102168.16;;;20.96;66.24
72498;BME280;60522;52.536;5.702;2022-10-31T02:30:22;102140.78;;;20.84;67.12
72498;BME280;60522;52.536;5.702;2022-10-31T02:44:16;102168.03;;;20.92;66.23
72498;BME280;60522;52.536;5.702;2022-10-31T02:46:24;102162.56;;;20.92;66.62
72498;BME280;60522;52.536;5.702;2022-10-31T02:48:58;102172.22;;;20.90;66.70
72498;BME280;60522;52.536;5.702;2022-10-31T02:51:25;102176.56;;;20.91;66.07
72498;BME280;60522;52.536;5.702;2022-10-31T02:53:51;102179.66;;;20.89;66.27
72498;BME280;60522;52.536;5.702;2022-10-31T02:56:18;102174.66;;;20.91;66.40
72498;BME280;60522;52.536;5.702;2022-10-31T02:58:49;102163.38;;;20.93;67.07
72498;BME280;60522;52.536;5.702;2022-10-31T03:01:47;102169.63;;;20.93;67.42
72498;BME280;60522;52.536;5.702;2022-10-31T03:12:47;102159.91;;;20.84;66.80
72498;BME280;60522;52.536;5.702;2022-10-31T03:15:32;102160.41;;;20.86;67.68
72498;BME280;60522;52.536;5.702;2022-10-31T03:18:09;102165.97;;;20.89;66.64
72498;BME280;60522;52.536;5.702;2022-10-31T03:23:15;102179.66;;;20.89;66.78
72498;BME280;60522;52.536;5.702;2022-10-31T03:25:41;102155.69;;;20.74;66.71
72498;BME280;60522;52.536;5.702;2022-10-31T03:28:10;102183.50;;;20.88;66.65
72498;BME280;60522;52.536;5.702;2022-10-31T03:30:38;102168.59;;;20.86;66.75
72498;BME280;60522;52.536;5.702;2022-10-31T03:33:10;102174.06;;;20.86;66.77
72498;BME280;60522;52.536;5.702;2022-10-31T03:35:39;102173.38;;;20.89;66.95
72498;BME280;60522;52.536;5.702;2022-10-31T03:38:07;102168.25;;;20.87;66.49
72498;BME280;60522;52.536;5.702;2022-10-31T03:40:35;102175.31;;;20.88;66.64
72498;BME280;60522;52.536;5.702;2022-10-31T03:43:07;102175.31;;;20.88;67.07
72498;BME280;60522;52.536;5.702;2022-10-31T03:45:40;102174.50;;;20.88;66.92
72498;BME280;60522;52.536;5.702;2022-10-31T03:48:06;102175.66;;;20.87;66.70
72498;BME280;60522;52.536;5.702;2022-10-31T03:51:00;102179.19;;;20.87;67.75
72498;BME280;60522;52.536;5.702;2022-10-31T03:53:34;102172.91;;;20.87;66.58
72498;BME280;60522;52.536;5.702;2022-10-31T03:56:12;102178.38;;;20.87;67.42
72498;BME280;60522;52.536;5.702;2022-10-31T03:58:54;102185.44;;;20.88;67.36
72498;BME280;60522;52.536;5.702;2022-10-31T04:01:23;102175.88;;;20.81;66.74
72498;BME280;60522;52.536;5.702;2022-10-31T04:03:49;102181.13;;;20.87;66.54
72498;BME280;60522;52.536;5.702;2022-10-31T04:06:17;102187.06;;;20.89;66.81
72498;BME280;60522;52.536;5.702;2022-10-31T04:08:54;102185.91;;;20.90;67.01
72498;BME280;60522;52.536;5.702;2022-10-31T04:11:23;102183.16;;;20.90;66.68
72498;BME280;60522;52.536;5.702;2022-10-31T04:13:51;102166.06;;;20.80;66.95
72498;BME280;60522;52.536;5.702;2022-10-31T04:16:18;102191.38;;;20.90;66.71
72498;BME280;60522;52.536;5.702;2022-10-31T04:18:45;102185.91;;;20.90;66.93
72498;BME280;60522;52.536;5.702;2022-10-31T04:21:11;102175.09;;;20.81;66.86
72498;BME280;60522;52.536;5.702;2022-10-31T04:23:36;102190.59;;;20.89;66.80
72498;BME280;60522;52.536;5.702;2022-10-31T04:26:02;102174.41;;;20.84;67.06
72498;BME280;60522;52.536;5.702;2022-10-31T04:28:27;102156.50;;;20.74;66.93
72498;BME280;60522;52.536;5.702;2022-10-31T04:30:53;102170.97;;;20.75;66.87
72498;BME280;60522;52.536;5.702;2022-10-31T04:33:19;102187.41;;;20.87;67.14
72498;BME280;60522;52.536;5.702;2022-10-31T04:35:44;102182.72;;;20.88;67.20
72498;BME280;60522;52.536;5.702;2022-10-31T04:38:10;102181.59;;;20.89;66.96
72498;BME280;60522;52.536;5.702;2022-10-31T04:40:35;102185.78;;;20.86;67.12
72498;BME280;60522;52.536;5.702;2022-10-31T04:43:01;102187.75;;;20.86;67.23
72498;BME280;60522;52.536;5.702;2022-10-31T04:45:26;102177.81;;;20.81;66.97
72498;BME280;60522;52.536;5.702;2022-10-31T04:47:51;102182.59;;;20.84;67.47
72498;BME280;60522;52.536;5.702;2022-10-31T04:50:17;102179.88;;;20.84;67.35
72498;BME280;60522;52.536;5.702;2022-10-31T04:52:43;102193.22;;;20.86;67.12
72498;BME280;60522;52.536;5.702;2022-10-31T04:55:10;102181.78;;;20.84;67.13
72498;BME280;60522;52.536;5.702;2022-10-31T04:57:43;102177.47;;;20.83;67.91
72498;BME280;60522;52.536;5.702;2022-10-31T05:00:10;102183.75;;;20.83;67.32
72498;BME280;60522;52.536;5.702;2022-10-31T05:02:45;102178.28;;;20.83;68.32
72498;BME280;60522;52.536;5.702;2022-10-31T05:05:13;102163.09;;;20.73;67.49
72498;BME280;60522;52.536;5.702;2022-10-31T05:07:39;102170.84;;;20.84;67.39
72498;BME280;60522;52.536;5.702;2022-10-31T05:10:05;102175.53;;;20.83;67.21
72498;BME280;60522;52.536;5.702;2022-10-31T05:12:31;102170.06;;;20.83;67.13
72498;BME280;60522;52.536;5.702;2022-10-31T05:14:56;102167.34;;;20.83;67.27
72498;BME280;60522;52.536;5.702;2022-10-31T05:17:22;102167.34;;;20.83;67.48
72498;BME280;60522;52.536;5.702;2022-10-31T05:19:47;102153.31;;;20.72;67.15
72498;BME280;60522;52.536;5.702;2022-10-31T05:22:12;102168.13;;;20.84;67.22
72498;BME280;60522;52.536;5.702;2022-10-31T05:24:37;102173.25;;;20.85;67.28
72498;BME280;60522;52.536;5.702;2022-10-31T05:27:03;102169.38;;;20.86;67.20
72498;BME280;60522;52.536;5.702;2022-10-31T05:29:28;102166.88;;;20.81;67.36
72498;BME280;60522;52.536;5.702;2022-10-31T05:31:58;102171.88;;;20.79;67.19
72498;BME280;60522;52.536;5.702;2022-10-31T05:34:24;102178.28;;;20.83;67.14
72498;BME280;60522;52.536;5.702;2022-10-31T05:36:49;102154.78;;;20.70;67.24
72498;BME280;60522;52.536;5.702;2022-10-31T05:39:15;102158.78;;;20.72;67.34
72498;BME280;60522;52.536;5.702;2022-10-31T05:41:40;102176.31;;;20.84;67.43
72498;BME280;60522;52.536;5.702;2022-10-31T05:44:05;102178.94;;;20.80;67.28
72498;BME280;60522;52.536;5.702;2022-10-31T05:46:31;102175.88;;;20.81;67.40
72498;BME280;60522;52.536;5.702;2022-10-31T05:48:56;102171.53;;;20.80;67.41
72498;BME280;60522;52.536;5.702;2022-10-31T05:51:22;102169.13;;;20.79;67.23
72498;BME280;60522;52.536;5.702;2022-10-31T05:53:47;102166.41;;;20.79;67.48
72498;BME280;60522;52.536;5.702;2022-10-31T05:56:13;102176.22;;;20.80;67.16
72498;BME280;60522;52.536;5.702;2022-10-31T05:58:38;102162.88;;;20.78;67.44
72498;BME280;60522;52.536;5.702;2022-10-31T06:01:03;102158.19;;;20.79;67.66
72498;BME280;60522;52.536;5.702;2022-10-31T06:03:29;102159.81;;;20.80;67.53
72498;BME280;60522;52.536;5.702;2022-10-31T06:05:54;102151.94;;;20.78;67.32
72498;BME280;60522;52.536;5.702;2022-10-31T06:08:20;102150.81;;;20.79;67.42
72498;BME280;60522;52.536;5.702;2022-10-31T06:10:45;102127.00;;;20.68;67.53
72498;BME280;60522;52.536;5.702;2022-10-31T06:13:11;102145.69;;;20.78;67.61
72498;BME280;60522;52.536;5.702;2022-10-31T06:15:36;102145.34;;;20.79;67.59
72498;BME280;60522;52.536;5.702;2022-10-31T06:18:04;102148.09;;;20.79;67.65
72498;BME280;60522;52.536;5.702;2022-10-31T06:20:30;102139.31;;;20.74;67.59
72498;BME280;60522;52.536;5.702;2022-10-31T06:22:56;102143.75;;;20.78;67.67
72498;BME280;60522;52.536;5.702;2022-10-31T06:25:21;102144.53;;;20.79;67.86
72498;BME280;60522;52.536;5.702;2022-10-31T06:27:47;102144.09;;;20.77;67.50
72498;BME280;60522;52.536;5.702;2022-10-31T06:30:13;102123.63;;;20.62;67.74
72498;BME280;60522;52.536;5.702;2022-10-31T06:32:38;102145.56;;;20.74;67.55
72498;BME280;60522;52.536;5.702;2022-10-31T06:35:04;102146.03;;;20.76;67.44
72498;BME280;60522;52.536;5.702;2022-10-31T06:37:29;102144.09;;;20.77;67.57
72498;BME280;60522;52.536;5.702;2022-10-31T06:39:54;102154.69;;;20.78;67.63
72498;BME280;60522;52.536;5.702;2022-10-31T06:42:20;102149.56;;;20.77;67.76
72498;BME280;60522;52.536;5.702;2022-10-31T06:44:45;102145.56;;;20.74;67.63
72498;BME280;60522;52.536;5.702;2022-10-31T06:47:10;102158.09;;;20.75;67.44
72498;BME280;60522;52.536;5.702;2022-10-31T06:49:36;102149.91;;;20.75;67.59
72498;BME280;60522;52.536;5.702;2022-10-31T06:52:01;102124.66;;;20.57;67.60
72498;BME280;60522;52.536;5.702;2022-10-31T06:54:26;102153.75;;;20.74;67.69
72498;BME280;60522;52.536;5.702;2022-10-31T06:56:52;102134.38;;;20.67;67.45
72498;BME280;60522;52.536;5.702;2022-10-31T06:59:17;102159.22;;;20.74;67.49
72498;BME280;60522;52.536;5.702;2022-10-31T07:01:43;102153.41;;;20.76;67.63
72498;BME280;60522;52.536;5.702;2022-10-31T07:04:11;102146.78;;;20.64;68.05
72498;BME280;60522;52.536;5.702;2022-10-31T07:06:37;102164.69;;;20.74;67.88
72498;BME280;60522;52.536;5.702;2022-10-31T07:09:02;102157.63;;;20.73;67.65
72498;BME280;60522;52.536;5.702;2022-10-31T07:11:27;102162.44;;;20.76;67.72
72498;BME280;60522;52.536;5.702;2022-10-31T07:13:53;102165.97;;;20.77;67.71
72498;BME280;60522;52.536;5.702;2022-10-31T07:16:18;102175.78;;;20.78;67.67
72498;BME280;60522;52.536;5.702;2022-10-31T07:18:43;102165.63;;;20.78;67.71
72498;BME280;60522;52.536;5.702;2022-10-31T07:21:09;102149.19;;;20.66;67.70
72498;BME280;60522;52.536;5.702;2022-10-31T07:23:34;102159.69;;;20.76;67.69
72498;BME280;60522;52.536;5.702;2022-10-31T07:25:59;102165.97;;;20.77;67.61
72498;BME280;60522;52.536;5.702;2022-10-31T07:28:26;102152.84;;;20.70;67.41
72498;BME280;60522;52.536;5.702;2022-10-31T07:30:53;102175.53;;;20.83;67.23
72498;BME280;60522;52.536;5.702;2022-10-31T07:33:19;102177.00;;;20.80;64.18
72498;BME280;60522;52.536;5.702;2022-10-31T07:35:44;102167.75;;;20.73;63.24
72498;BME280;60522;52.536;5.702;2022-10-31T07:38:11;102176.19;;;20.68;62.61
72498;BME280;60522;52.536;5.702;2022-10-31T07:40:37;102172.66;;;20.67;62.80
72498;BME280;60522;52.536;5.702;2022-10-31T07:43:03;102166.25;;;20.63;62.68
72498;BME280;60522;52.536;5.702;2022-10-31T07:45:28;102167.03;;;20.63;62.94
72498;BME280;60522;52.536;5.702;2022-10-31T07:47:54;102158.25;;;20.58;62.46
72498;BME280;60522;52.536;5.702;2022-10-31T07:50:22;102168.38;;;20.57;61.53
72498;BME280;60522;52.536;5.702;2022-10-31T07:52:57;102179.06;;;20.50;62.38
72498;BME280;60522;52.536;5.702;2022-10-31T07:55:22;102176.75;;;20.40;62.09
72498;BME280;60522;52.536;5.702;2022-10-31T07:57:58;102174.25;;;20.35;59.07
72498;BME280;60522;52.536;5.702;2022-10-31T08:00:24;102167.25;;;20.25;61.84
72498;BME280;60522;52.536;5.702;2022-10-31T08:03:03;102151.81;;;20.08;58.39
72498;BME280;60522;52.536;5.702;2022-10-31T08:05:30;102173.13;;;20.15;61.40
72498;BME280;60522;52.536;5.702;2022-10-31T08:07:56;102170.59;;;20.09;61.60
72498;BME280;60522;52.536;5.702;2022-10-31T08:10:23;102174.00;;;20.06;61.67
72498;BME280;60522;52.536;5.702;2022-10-31T08:13:09;102179.31;;;20.03;58.69
72498;BME280;60522;52.536;5.702;2022-10-31T08:15:35;102179.19;;;19.99;61.58
72498;BME280;60522;52.536;5.702;2022-10-31T08:18:04;102167.06;;;19.88;61.53
72498;BME280;60522;52.536;5.702;2022-10-31T08:20:29;102166.72;;;19.89;61.49
72498;BME280;60522;52.536;5.702;2022-10-31T08:23:00;102174.28;;;19.92;59.69
72498;BME280;60522;52.536;5.702;2022-10-31T08:25:27;102183.94;;;19.90;61.44
72498;BME280;60522;52.536;5.702;2022-10-31T08:27:54;102179.13;;;19.87;61.33
72498;BME280;60522;52.536;5.702;2022-10-31T08:30:21;102176.41;;;19.87;61.18
72498;BME280;60522;52.536;5.702;2022-10-31T08:32:47;102186.50;;;19.86;61.38
72498;BME280;60522;52.536;5.702;2022-10-31T08:35:13;102187.66;;;19.85;61.52
72498;BME280;60522;52.536;5.702;2022-10-31T08:37:39;102192.78;;;19.87;61.26
72498;BME280;60522;52.536;5.702;2022-10-31T08:40:05;102192.44;;;19.88;61.26
72498;BME280;60522;52.536;5.702;2022-10-31T08:42:31;102196.31;;;19.87;61.06
72498;BME280;60522;52.536;5.702;2022-10-31T08:44:57;102179.66;;;19.71;61.26
72498;BME280;60522;52.536;5.702;2022-10-31T08:47:22;102203.53;;;19.83;61.11
72498;BME280;60522;52.536;5.702;2022-10-31T08:49:47;102193.28;;;19.80;61.14
72498;BME280;60522;52.536;5.702;2022-10-31T08:52:13;102190.41;;;19.76;61.07
72498;BME280;60522;52.536;5.702;2022-10-31T08:54:40;102190.41;;;19.76;61.33
72498;BME280;60522;52.536;5.702;2022-10-31T08:57:05;102194.59;;;19.74;61.26
72498;BME280;60522;52.536;5.702;2022-10-31T08:59:30;102188.69;;;19.72;61.07
72498;BME280;60522;52.536;5.702;2022-10-31T09:01:56;102173.75;;;19.69;61.17
72498;BME280;60522;52.536;5.702;2022-10-31T09:04:21;102186.00;;;19.63;61.14
72498;BME280;60522;52.536;5.702;2022-10-31T09:06:46;102156.81;;;19.55;61.07
72498;BME280;60522;52.536;5.702;2022-10-31T09:09:12;102167.84;;;19.67;61.26
72498;BME280;60522;52.536;5.702;2022-10-31T09:11:37;102142.84;;;19.56;61.02
72498;BME280;60522;52.536;5.702;2022-10-31T09:14:02;102176.16;;;19.71;60.90
72498;BME280;60522;52.536;5.702;2022-10-31T09:16:28;102166.00;;;19.71;61.11
72498;BME280;60522;52.536;5.702;2022-10-31T09:18:53;102169.22;;;19.73;61.16
72498;BME280;60522;52.536;5.702;2022-10-31T09:21:18;102167.78;;;19.76;61.06
72498;BME280;60522;52.536;5.702;2022-10-31T09:23:44;102172.09;;;19.77;61.08
72498;BME280;60522;52.536;5.702;2022-10-31T09:26:09;102162.63;;;19.74;60.88
72498;BME280;60522;52.536;5.702;2022-10-31T09:28:34;102161.03;;;19.73;60.82
72498;BME280;60522;52.536;5.702;2022-10-31T09:31:00;102151.13;;;19.69;60.93
72498;BME280;60522;52.536;5.702;2022-10-31T09:33:25;102152.03;;;19.73;60.93
72498;BME280;60522;52.536;5.702;2022-10-31T09:35:51;102151.13;;;19.69;61.00
72498;BME280;60522;52.536;5.702;2022-10-31T09:38:20;102148.72;;;19.67;59.65
72498;BME280;60522;52.536;5.702;2022-10-31T09:46:33;102130.53;;;19.50;59.40
72498;BME280;60522;52.536;5.702;2022-10-31T09:54:49;102143.13;;;19.64;60.79
72498;BME280;60522;52.536;5.702;2022-10-31T09:57:25;102131.88;;;19.65;59.83
72498;BME280;60522;52.536;5.702;2022-10-31T09:59:52;102120.66;;;19.58;60.83
72498;BME280;60522;52.536;5.702;2022-10-31T10:02:48;102139.06;;;19.70;58.71
72498;BME280;60522;52.536;5.702;2022-10-31T10:05:20;102122.44;;;19.63;59.52
72498;BME280;60522;52.536;5.702;2022-10-31T10:08:01;102127.88;;;19.63;58.95
72498;BME280;60522;52.536;5.702;2022-10-31T10:13:14;102120.38;;;19.60;60.84
72498;BME280;60522;52.536;5.702;2022-10-31T10:16:03;102117.94;;;19.58;58.95
72498;BME280;60522;52.536;5.702;2022-10-31T10:18:39;102116.69;;;19.55;59.86
72498;BME280;60522;52.536;5.702;2022-10-31T10:24:17;102113.34;;;19.50;58.77
72498;BME280;60522;52.536;5.702;2022-10-31T10:27:29;102104.38;;;19.49;58.67
72498;BME280;60522;52.536;5.702;2022-10-31T10:30:13;102110.16;;;19.48;59.79
72498;BME280;60522;52.536;5.702;2022-10-31T10:33:00;102111.97;;;19.44;58.86
72498;BME280;60522;52.536;5.702;2022-10-31T10:35:33;102085.38;;;19.32;59.66
72498;BME280;60522;52.536;5.702;2022-10-31T10:38:09;102108.09;;;19.45;59.84
72498;BME280;60522;52.536;5.702;2022-10-31T10:40:36;102089.41;;;19.34;60.65
72498;BME280;60522;52.536;5.702;2022-10-31T10:43:12;102099.78;;;19.41;60.26
72498;BME280;60522;52.536;5.702;2022-10-31T10:45:48;102080.72;;;19.32;60.64
72498;BME280;60522;52.536;5.702;2022-10-31T10:48:43;102093.84;;;19.39;60.29
72498;BME280;60522;52.536;5.702;2022-10-31T10:51:37;102090.78;;;19.40;59.97
72498;BME280;60522;52.536;5.702;2022-10-31T10:54:13;102087.13;;;19.36;60.66
72498;BME280;60522;52.536;5.702;2022-10-31T10:59:46;102073.53;;;19.28;61.03
72498;BME280;60522;52.536;5.702;2022-10-31T11:02:38;102065.34;;;19.28;59.24
72498;BME280;60522;52.536;5.702;2022-10-31T11:05:03;102043.91;;;19.17;60.93
72498;BME280;60522;52.536;5.702;2022-10-31T11:07:40;102043.41;;;19.24;60.08
72498;BME280;60522;52.536;5.702;2022-10-31T11:10:11;102048.72;;;19.20;60.91
72498;BME280;60522;52.536;5.702;2022-10-31T11:12:40;102058.63;;;19.25;60.97
72498;BME280;60522;52.536;5.702;2022-10-31T11:15:17;102049.19;;;19.22;59.66
72498;BME280;60522;52.536;5.702;2022-10-31T11:17:48;102040.84;;;19.19;60.18
72498;BME280;60522;52.536;5.702;2022-10-31T11:22:42;102041.47;;;19.25;60.64
72498;BME280;60522;52.536;5.702;2022-10-31T11:25:37;102028.63;;;19.25;59.35
72498;BME280;60522;52.536;5.702;2022-10-31T11:28:05;102009.63;;;19.16;60.60
72498;BME280;60522;52.536;5.702;2022-10-31T11:30:48;102022.88;;;19.27;59.83
72498;BME280;60522;52.536;5.702;2022-10-31T11:33:28;101986.88;;;19.12;59.40
72498;BME280;60522;52.536;5.702;2022-10-31T11:35:54;102003.28;;;19.25;60.74
72498;BME280;60522;52.536;5.702;2022-10-31T11:38:24;101971.16;;;19.09;60.40
72498;BME280;60522;52.536;5.702;2022-10-31T11:40:55;101980.69;;;19.24;59.87
72498;BME280;60522;52.536;5.702;2022-10-31T11:43:22;101986.47;;;19.22;60.81
72498;BME280;60522;52.536;5.702;2022-10-31T11:45:48;101976.69;;;19.21;60.91
72498;BME280;60522;52.536;5.702;2022-10-31T11:48:20;101964.16;;;19.20;59.90
72498;BME280;60522;52.536;5.702;2022-10-31T11:50:52;101952.03;;;19.18;59.78
72498;BME280;60522;52.536;5.702;2022-10-31T11:56:01;101925.53;;;19.18;59.28
72498;BME280;60522;52.536;5.702;2022-10-31T11:58:26;101893.88;;;19.05;60.61
72498;BME280;60522;52.536;5.702;2022-10-31T12:00:55;101911.63;;;19.11;60.18
72498;BME280;60522;52.536;5.702;2022-10-31T12:03:26;101943.50;;;19.19;60.25
72498;BME280;60522;52.536;5.702;2022-10-31T12:06:02;101963.50;;;19.23;59.70
72498;BME280;60522;52.536;5.702;2022-10-31T12:08:30;101965.44;;;19.23;60.32
72498;BME280;60522;52.536;5.702;2022-10-31T12:13:37;101953.06;;;19.26;59.92
72498;BME280;60522;52.536;5.702;2022-10-31T12:16:29;101953.75;;;19.22;59.57
72498;BME280;60522;52.536;5.702;2022-10-31T12:27:28;101940.09;;;19.22;59.78
72498;BME280;60522;52.536;5.702;2022-10-31T12:30:28;101942.00;;;19.22;59.86
72498;BME280;60522;52.536;5.702;2022-10-31T12:33:20;101931.78;;;19.19;59.93
72498;BME280;60522;52.536;5.702;2022-10-31T12:39:06;101905.78;;;19.21;59.98
72498;BME280;60522;52.536;5.702;2022-10-31T12:41:50;101889.75;;;19.20;60.48
72498;BME280;60522;52.536;5.702;2022-10-31T12:50:08;101867.81;;;19.16;60.57
72498;BME280;60522;52.536;5.702;2022-10-31T12:58:13;101848.59;;;19.13;60.97
72498;BME280;60522;52.536;5.702;2022-10-31T13:00:44;101853.31;;;19.03;60.83
72498;BME280;60522;52.536;5.702;2022-10-31T13:05:53;101848.13;;;19.11;61.01
72498;BME280;60522;52.536;5.702;2022-10-31T13:08:42;101839.16;;;19.10;60.80
72498;BME280;60522;52.536;5.702;2022-10-31T13:11:16;101836.09;;;19.12;60.85
72498;BME280;60522;52.536;5.702;2022-10-31T13:16:16;101830.66;;;19.12;61.10
72498;BME280;60522;52.536;5.702;2022-10-31T13:18:47;101825.19;;;19.12;61.40
72498;BME280;60522;52.536;5.702;2022-10-31T13:21:26;101824.38;;;19.11;61.02
72498;BME280;60522;52.536;5.702;2022-10-31T13:23:55;101812.34;;;19.12;61.26
72498;BME280;60522;52.536;5.702;2022-10-31T13:26:38;101802.56;;;19.11;61.22
72498;BME280;60522;52.536;5.702;2022-10-31T13:31:42;101784.84;;;19.17;61.53
72498;BME280;60522;52.536;5.702;2022-10-31T13:34:25;101790.66;;;19.16;61.19
72498;BME280;60522;52.536;5.702;2022-10-31T13:42:35;101778.50;;;19.13;61.28
72498;BME280;60522;52.536;5.702;2022-10-31T13:45:14;101771.56;;;19.16;61.18
72498;BME280;60522;52.536;5.702;2022-10-31T13:47:41;101768.50;;;19.17;61.58
72498;BME280;60522;52.536;5.702;2022-10-31T13:50:25;101766.91;;;19.16;61.33
72498;BME280;60522;52.536;5.702;2022-10-31T13:52:51;101760.97;;;19.14;61.77
72498;BME280;60522;52.536;5.702;2022-10-31T13:55:37;101770.78;;;19.15;61.28
72498;BME280;60522;52.536;5.702;2022-10-31T13:58:24;101745.78;;;19.13;61.44
72498;BME280;60522;52.536;5.702;2022-10-31T14:03:41;101738.72;;;19.12;61.78
72498;BME280;60522;52.536;5.702;2022-10-31T14:06:08;101725.44;;;19.11;61.71
72498;BME280;60522;52.536;5.702;2022-10-31T14:08:39;101738.50;;;19.17;61.74
72498;BME280;60522;52.536;5.702;2022-10-31T14:11:07;101741.69;;;19.19;61.72
72498;BME280;60522;52.536;5.702;2022-10-31T14:13:52;101729.63;;;19.20;61.41
72498;BME280;60522;52.536;5.702;2022-10-31T14:16:23;101733.53;;;19.19;61.67
72498;BME280;60522;52.536;5.702;2022-10-31T14:18:58;101725.34;;;19.19;61.54
72498;BME280;60522;52.536;5.702;2022-10-31T14:23:51;101702.94;;;19.14;61.65
72498;BME280;60522;52.536;5.702;2022-10-31T14:33:59;101663.75;;;19.06;61.78
72498;BME280;60522;52.536;5.702;2022-10-31T14:39:11;101676.94;;;19.16;61.65
72498;BME280;60522;52.536;5.702;2022-10-31T14:47:36;101655.13;;;19.16;61.89
72498;BME280;60522;52.536;5.702;2022-10-31T14:50:27;101652.94;;;19.10;62.02
72498;BME280;60522;52.536;5.702;2022-10-31T14:53:00;101657.25;;;19.11;62.06
72498;BME280;60522;52.536;5.702;2022-10-31T14:55:27;101644.75;;;19.10;62.31
72498;BME280;60522;52.536;5.702;2022-10-31T14:57:59;101642.03;;;19.10;62.37
72498;BME280;60522;52.536;5.702;2022-10-31T15:00:26;101644.41;;;19.11;62.40
72498;BME280;60522;52.536;5.702;2022-10-31T15:05:22;101641.13;;;19.05;62.53
72498;BME280;60522;52.536;5.702;2022-10-31T15:07:52;101637.59;;;19.05;62.26
72498;BME280;60522;52.536;5.702;2022-10-31T15:10:22;101628.28;;;19.06;62.50